Latest Weather Observations for Kowanyama

IDQ60801

Issued at 6:52 pm EST Friday 26 February 2021 (issued every 10 minutes, with the page automatically refreshed every 10 minutes)

About weather observations | Map of weather stations | Latest weather observations for QLD | Other Formats
Station Details ID: 029038 Name: KOWANYAMA AIRPORT Lat: -15.48 Lon: 141.75 Height: 9.6 m
Data from the previous 72 hours. | See also: Recent months at Kowanyama
Date/Time
EST
Temp
°C
App
Temp
°C
Dew
Point
°C
Rel
Hum
%
Delta-T
°C
Wind Press
QNH
hPa
Press
MSL
hPa
Rain since
9am
mm
Dir  Spd
km/h
Gust
km/h
Spd
kts
Gust
kts
26/06:30pm 25.3 26.7 21.8 81 2.3 S 17 24 9 13 1004.2 1004.1 0.2
26/06:00pm 27.1 30.8 23.3 80 2.6 ESE 9 19 5 10 1003.6 1003.5 0.2
26/05:30pm 28.1 33.3 25.7 87 1.7 NNW 9 15 5 8 1003.3 1003.2 0.2
26/05:00pm 29.3 33.9 24.8 77 3.2 N 9 17 5 9 1002.6 1002.5 0.0
26/04:30pm 31.1 34.8 24.5 68 4.6 W 13 20 7 11 1002.3 1002.2 0.0
26/04:00pm 32.2 35.3 24.8 65 5.2 WNW 17 20 9 11 1002.0 1001.9 0.0
26/03:30pm 31.9 35.3 24.7 65 5.1 WNW 15 20 8 11 1002.1 1002.0 0.0
26/03:00pm 31.7 34.8 24.8 67 4.9 W 17 24 9 13 1002.3 1002.2 0.0
26/02:30pm 31.7 35.0 25.1 68 4.7 W 17 22 9 12 1002.6 1002.5 0.0
26/02:00pm 32.4 36.8 25.0 65 5.2 NW 11 17 6 9 1003.0 1002.9 0.0
26/01:30pm 33.4 36.9 22.2 52 7.7 WSW 7 13 4 7 1003.3 1003.2 0.0
26/01:00pm 33.9 39.3 23.9 56 7.0 WNW 2 11 1 6 1003.7 1003.6 0.0
26/12:30pm 33.4 37.6 23.1 54 7.1 W 6 11 3 6 1004.1 1004.0 0.0
26/12:00pm 32.6 36.9 23.3 58 6.5 E 6 9 3 5 1004.5 1004.4 0.0
26/11:30am 32.0 36.3 23.3 60 6.0 N 6 13 3 7 1004.8 1004.7 0.0
26/11:00am 31.8 37.4 23.6 62 5.7 CALM 0 7 0 4 1005.3 1005.2 0.0
26/10:30am 31.4 35.9 24.0 65 5.2 WSW 7 11 4 6 1005.7 1005.6 0.0
26/10:00am 30.7 35.3 24.1 68 4.6 SW 7 13 4 7 1005.9 1005.8 0.0
26/09:30am 29.7 34.2 24.6 74 3.6 SW 9 15 5 8 1006.2 1006.1 0.0
26/09:00am 29.1 33.4 24.9 78 2.9 WSW 11 15 6 8 1006.2 1006.1 0.0
26/08:30am 28.4 34.0 25.4 84 2.1 W 6 9 3 5 1005.9 1005.8 0.0
26/08:00am 27.5 32.8 25.3 88 1.5 WNW 7 9 4 5 1005.6 1005.5 0.0
26/07:30am 26.4 31.8 25.5 95 0.6 NW 7 7 4 4 1005.4 1005.3 0.0
26/07:00am 26.1 33.1 25.8 98 0.2 CALM 0 0 0 0 1004.8 1004.7 0.0
26/06:30am 25.5 31.8 24.8 96 0.5 CALM 0 0 0 0 1004.4 1004.3 0.0
26/06:00am 25.6 32.0 24.9 96 0.5 CALM 0 0 0 0 1003.9 1003.8 0.0
26/05:30am 25.7 32.3 25.2 97 0.3 CALM 0 0 0 0 1003.9 1003.8 0.0
26/05:00am 25.6 32.0 24.9 96 0.5 CALM 0 0 0 0 1003.7 1003.6 0.0
26/04:30am 25.7 32.0 24.7 94 0.7 CALM 0 0 0 0 1003.5 1003.4 0.0
26/04:00am 25.8 32.1 24.8 94 0.7 CALM 0 0 0 0 1003.4 1003.3 0.0
26/03:30am 25.8 31.0 25.1 96 0.5 NE 7 9 4 5 1003.5 1003.4 0.0
26/03:00am 25.9 31.0 25.0 95 0.6 NE 7 9 4 5 1003.9 1003.8 0.0
26/02:30am 26.1 32.6 25.1 94 0.7 CALM 0 0 0 0 1004.2 1004.1 0.0
26/02:00am 26.1 32.4 24.7 92 1.0 CALM 0 0 0 0 1004.5 1004.4 0.0
26/01:30am 26.1 32.4 24.7 92 1.0 CALM 0 0 0 0 1004.8 1004.7 0.0
26/01:00am 26.2 32.7 25.0 93 0.8 CALM 0 0 0 0 1005.1 1005.0 0.0
26/12:30am 26.2 32.5 24.8 92 1.0 CALM 0 0 0 0 1005.5 1005.4 0.0
26/12:00am 26.3 32.6 24.7 91 1.1 CALM 0 0 0 0 1005.9 1005.8 0.0
 
Date/Time
EST
Temp
°C
App
Temp
°C
Dew
Point
°C
Rel
Hum
%
Delta-T
°C
Wind Press
QNH
hPa
Press
MSL
hPa
Rain since
9am
mm
Dir  Spd
km/h
Gust
km/h
Spd
kts
Gust
kts
25/11:30pm 26.4 32.4 24.8 91 1.1 SW 2 6 1 3 1006.1 1006.0 0.0
25/11:00pm 26.6 32.9 24.8 90 1.3 CALM 0 6 0 3 1006.0 1005.9 0.0
25/10:30pm 26.7 31.8 24.7 89 1.4 SW 6 7 3 4 1005.9 1005.8 0.0
25/10:00pm 26.8 31.8 24.5 87 1.6 SSW 6 6 3 3 1005.8 1005.7 0.0
25/09:30pm 27.1 32.6 24.6 86 1.7 SSW 4 7 2 4 1005.7 1005.6 0.0
25/09:00pm 27.2 32.2 24.5 85 1.9 SW 6 7 3 4 1005.5 1005.4 0.0
25/08:30pm 27.3 32.1 24.2 83 2.1 WSW 6 7 3 4 1005.3 1005.2 0.0
25/08:00pm 27.6 32.0 23.8 80 2.6 SW 7 9 4 5 1005.3 1005.2 0.0
25/07:30pm 27.6 31.8 23.4 78 2.9 WSW 7 9 4 5 1004.8 1004.7 0.0
25/07:00pm 28.4 32.1 23.3 74 3.5 WSW 9 15 5 8 1004.2 1004.1 0.0
25/06:30pm 29.1 32.1 23.3 71 4.0 WSW 13 19 7 10 1004.0 1003.9 0.0
25/06:00pm 30.0 32.6 23.9 70 4.2 WSW 17 22 9 12 1003.8 1003.7 0.0
25/05:30pm 30.5 33.3 23.7 67 4.7 WSW 15 24 8 13 1003.6 1003.5 0.0
25/05:00pm 31.2 33.5 24.1 66 5.0 WSW 19 24 10 13 1003.3 1003.2 0.0
25/04:30pm 31.6 34.3 24.7 67 4.8 WSW 19 26 10 14 1003.2 1003.1 0.0
25/04:00pm 31.8 34.8 24.7 66 5.0 W 17 22 9 12 1003.3 1003.2 0.0
25/03:30pm 33.3 37.3 22.1 52 7.6 SW 4 11 2 6 1003.5 1003.4 0.0
25/03:00pm 32.7 35.7 21.2 50 7.8 SW 7 13 4 7 1003.8 1003.7 0.0
25/02:30pm 33.0 36.8 22.7 54 7.1 SSE 7 17 4 9 1004.0 1003.9 0.0
25/02:00pm 32.3 35.1 20.5 49 7.9 SSE 6 13 3 7 1004.4 1004.3 0.0
25/01:30pm 32.4 36.5 22.2 55 7.0 SSE 4 13 2 7 1004.9 1004.8 0.0
25/01:00pm 31.6 34.7 21.5 55 6.8 SW 7 15 4 8 1005.4 1005.3 0.0
25/12:30pm 32.0 35.8 22.7 58 6.4 ENE 7 11 4 6 1005.9 1005.8 0.0
25/12:00pm 31.9 35.3 22.0 55 6.7 NE 7 15 4 8 1006.5 1006.4 0.0
25/11:30am 31.7 34.9 23.0 60 6.0 ENE 11 17 6 9 1006.8 1006.7 0.0
25/11:00am 30.8 33.5 22.1 59 5.9 ESE 11 17 6 9 1007.0 1006.9 0.0
25/10:30am 30.7 34.5 23.4 65 5.0 ENE 9 13 5 7 1007.1 1007.0 0.0
25/10:00am 30.1 33.8 22.5 63 5.2 ENE 7 17 4 9 1007.4 1007.3 0.0
25/09:30am 29.6 33.9 23.3 69 4.3 ENE 6 9 3 5 1007.3 1007.2 0.0
25/09:00am 28.9 32.8 23.6 73 3.7 NE 9 13 5 7 1007.0 1006.9 0.0
25/08:30am 27.8 31.4 23.0 75 3.3 NNE 9 15 5 8 1006.7 1006.6 0.0
25/08:00am 27.2 31.8 23.2 79 2.7 NE 4 9 2 5 1006.5 1006.4 0.0
25/07:30am 26.0 31.8 24.0 89 1.4 CALM 0 0 0 0 1006.4 1006.3 0.0
25/07:00am 24.8 30.5 23.8 94 0.7 CALM 0 0 0 0 1006.1 1006.0 0.0
25/06:30am 24.6 30.2 23.6 94 0.7 CALM 0 0 0 0 1005.8 1005.7 0.0
25/06:00am 24.5 29.7 22.9 91 1.1 CALM 0 0 0 0 1005.6 1005.5 0.0
25/05:30am 24.9 30.6 23.7 93 0.8 CALM 0 0 0 0 1005.6 1005.5 0.0
25/05:00am 24.9 30.6 23.7 93 0.8 CALM 0 0 0 0 1005.5 1005.4 0.0
25/04:30am 25.0 30.6 23.6 92 1.0 CALM 0 0 0 0 1005.1 1005.0 0.0
25/04:00am 24.9 30.2 23.0 89 1.3 CALM 0 0 0 0 1005.1 1005.0 0.0
25/03:30am 25.1 30.3 22.8 87 1.6 CALM 0 0 0 0 1004.9 1004.8 0.0
25/03:00am 25.2 30.2 22.5 85 1.8 CALM 0 0 0 0 1005.1 1005.0 0.0
25/02:30am 25.6 30.3 22.7 84 2.0 NE 2 7 1 4 1005.5 1005.4 0.0
25/02:00am 25.7 31.0 23.0 85 1.8 CALM 0 0 0 0 1005.8 1005.7 0.0
25/01:30am 26.2 31.4 22.9 82 2.2 CALM 0 0 0 0 1006.2 1006.1 0.0
25/01:00am 26.1 31.0 22.4 80 2.5 CALM 0 0 0 0 1006.3 1006.2 0.0
25/12:30am 26.4 30.9 22.3 78 2.8 ENE 2 6 1 3 1006.4 1006.3 0.0
25/12:00am 26.4 30.0 22.3 78 2.8 NNE 7 11 4 6 1006.6 1006.5 0.0
 
Date/Time
EST
Temp
°C
App
Temp
°C
Dew
Point
°C
Rel
Hum
%
Delta-T
°C
Wind Press
QNH
hPa
Press
MSL
hPa
Rain since
9am
mm
Dir  Spd
km/h
Gust
km/h
Spd
kts
Gust
kts
24/11:30pm 26.6 30.7 22.9 80 2.5 NE 6 9 3 5 1006.7 1006.6 0.0
24/11:00pm 27.1 32.0 22.3 75 3.2 CALM 0 0 0 0 1006.4 1006.3 0.0
24/10:30pm 27.7 30.9 22.4 73 3.6 ENE 9 17 5 9 1006.4 1006.3 0.0
24/10:00pm 27.2 34.0 25.6 91 1.1 CALM 0 9 0 5 1005.8 1005.7 0.0
24/09:30pm 27.3 33.5 24.6 85 1.9 CALM 0 0 0 0 1005.4 1005.3 0.0
24/09:00pm 27.9 32.9 24.5 82 2.4 ESE 6 17 3 9 1005.1 1005.0 0.0
24/08:30pm 27.8 33.4 24.2 81 2.5 ESE 2 15 1 8 1005.1 1005.0 0.0
24/08:00pm 27.6 33.4 24.0 81 2.5 CALM 0 0 0 0 1004.9 1004.8 0.0
24/07:30pm 28.3 34.2 24.1 78 2.9 CALM 0 0 0 0 1004.5 1004.4 0.0
24/07:00pm 29.4 34.6 23.6 71 4.0 E 2 7 1 4 1004.4 1004.3 0.0
24/06:30pm 30.7 34.4 22.6 62 5.5 ESE 7 9 4 5 1004.2 1004.1 0.0
24/06:00pm 31.9 34.9 22.0 55 6.7 SE 9 11 5 6 1003.8 1003.7 0.0
24/05:30pm 32.8 36.5 22.3 54 7.2 SE 6 13 3 7 1003.6 1003.5 0.0
24/05:00pm 33.1 36.2 22.2 52 7.5 SSE 9 17 5 9 1003.4 1003.3 0.0
24/04:30pm 32.9 34.7 21.1 50 7.9 SE 13 19 7 10 1003.6 1003.5 0.0
24/04:00pm 33.4 37.2 23.4 55 7.0 ESE 9 15 5 8 1003.8 1003.7 0.0
24/03:30pm 33.1 35.8 22.2 52 7.4 S 11 24 6 13 1003.9 1003.8 0.0
24/03:00pm 33.1 36.2 22.2 52 7.5 SSE 9 17 5 9 1004.1 1004.0 0.0
24/02:30pm 32.2 35.4 22.3 56 6.8 SW 9 15 5 8 1004.6 1004.5 0.0
24/02:00pm 32.5 35.5 22.6 56 6.8 S 11 17 6 9 1005.0 1004.9 0.0
24/01:30pm 32.3 35.7 23.3 59 6.2 S 11 17 6 9 1005.5 1005.4 0.0
24/01:00pm 31.7 33.5 21.2 53 7.1 SSE 13 19 7 10 1005.9 1005.8 0.0
24/12:30pm 31.7 34.3 22.7 59 6.2 SSE 13 20 7 11 1006.5 1006.4 0.0
24/12:00pm 31.5 34.3 23.6 63 5.5 S 15 20 8 11 1007.0 1006.9 0.0
24/11:30am 31.0 34.1 23.6 64 5.1 S 13 20 7 11 1007.3 1007.2 0.0
24/11:00am 30.2 31.8 22.1 62 5.5 S 17 24 9 13 1007.8 1007.7 0.0
24/10:30am 29.5 32.2 23.4 69 4.2 SSW 15 20 8 11 1008.1 1008.0 0.0
24/10:00am 28.2 31.9 23.3 75 3.4 SSW 9 13 5 7 1008.1 1008.0 0.0
24/09:30am 27.5 31.7 23.5 79 2.7 S 7 11 4 6 1008.2 1008.1 0.0
24/09:00am 26.9 30.8 23.6 82 2.3 SSW 9 13 5 7 1008.0 1007.9 0.0
24/08:30am 26.2 29.5 22.5 80 2.5 S 9 15 5 8 1007.8 1007.7 0.0
24/08:16am 25.8 29.2 22.7 83 2.1 S 9 13 5 7 1007.5 1007.4 0.0
24/08:00am 25.1 28.3 22.4 85 1.8 S 9 15 5 8 1007.3 1007.2 0.0
24/07:31am 24.3 28.1 22.7 91 1.1 S 7 9 4 5 1007.2 1007.1 0.0
24/07:30am 24.3 27.7 22.7 91 1.1 S 9 11 5 6 1007.2 1007.1 0.0
24/07:00am 23.3 26.8 22.1 93 0.8 SE 7 11 4 6 1006.6 1006.5 0.0
24/06:30am 22.9 26.5 22.1 95 0.5 ESE 6 7 3 4 1006.2 1006.1 0.0
24/06:00am 22.9 26.3 21.7 93 0.8 ESE 6 7 3 4 1005.9 1005.8 0.0
24/05:30am 23.0 27.8 22.2 95 0.5 CALM 0 0 0 0 1005.5 1005.4 0.0
24/05:00am 23.0 27.7 22.0 94 0.7 CALM 0 0 0 0 1005.3 1005.2 0.0
24/04:30am 23.3 27.8 22.3 94 0.7 NNE 2 6 1 3 1005.5 1005.4 0.0
24/04:00am 23.5 28.4 22.3 93 0.8 CALM 0 0 0 0 1005.5 1005.4 0.0
24/03:30am 23.7 28.5 22.1 91 1.1 CALM 0 0 0 0 1005.9 1005.8 0.0
24/03:00am 23.9 28.8 22.3 91 1.1 CALM 0 6 0 3 1006.4 1006.3 0.0
24/02:58am 23.9 28.4 22.3 91 1.1 N 2 7 1 4 1006.4 1006.3 0.0
24/02:30am 24.1 27.6 22.2 89 1.3 N 7 11 4 6 1006.9 1006.8 0.0
24/02:00am 24.6 27.3 22.8 90 1.2 N 13 20 7 11 1006.8 1006.7 0.0
24/01:32am 24.3 28.2 22.9 92 0.9 NNW 7 9 4 5 1006.8 1006.7 0.0
24/01:30am 24.3 28.2 22.9 92 0.9 NNW 7 9 4 5 1006.8 1006.7 0.0
24/01:00am 24.4 28.2 22.7 90 1.1 NNW 7 13 4 7 1007.6 1007.5 0.0
24/12:30am 24.4 28.1 22.5 89 1.3 N 7 11 4 6 1007.9 1007.8 0.0
24/12:00am 24.6 27.7 22.1 86 1.7 SSE 9 17 5 9 1009.5 1009.4 0.0
 
Date/Time
EST
Temp
°C
App
Temp
°C
Dew
Point
°C
Rel
Hum
%
Delta-T
°C
Wind Press
QNH
hPa
Press
MSL
hPa
Rain since
9am
mm
Dir  Spd
km/h
Gust
km/h
Spd
kts
Gust
kts
23/11:30pm 24.7 28.2 22.2 86 1.7 SE 7 15 4 8 1010.0 1009.9 0.0
23/11:00pm 25.6 28.5 21.7 79 2.6 SE 9 11 5 6 1010.0 1009.9 0.0
23/10:30pm 26.4 27.3 20.9 72 3.6 SE 17 24 9 13 1009.6 1009.5 0.0
23/10:00pm 27.0 29.7 22.8 78 2.9 SSE 13 20 7 11 1009.2 1009.1 0.0
23/09:30pm 26.7 30.7 23.8 84 2.0 SSE 9 11 5 6 1008.7 1008.6 0.0
23/09:00pm 26.7 31.2 23.6 83 2.1 SW 6 7 3 4 1007.7 1007.6 0.0
23/08:30pm 27.0 31.3 23.3 80 2.5 SW 6 7 3 4 1007.0 1006.9 0.0
23/08:00pm 27.4 31.8 23.4 79 2.7 WSW 6 7 3 4 1006.3 1006.2 0.0
23/07:30pm 27.6 31.5 23.0 76 3.1 SW 7 9 4 5 1005.8 1005.7 0.0
23/07:00pm 28.3 31.6 22.5 71 3.9 W 9 13 5 7 1005.2 1005.1 0.0

Other formats

Comma delimited format used in spreadsheet applications
http://www.bom.gov.au/fwo/IDQ60801/IDQ60801.94268.axf

JavaScript Object Notation format (JSON) in row-major order
http://www.bom.gov.au/fwo/IDQ60801/IDQ60801.94268.json

Data quality

Most of these data are generated automatically and are frequently updated. Quality checks on data are not normally performed. It is possible for incorrect values to appear. Refer to information at About Latest Weather Observations and please check the disclaimer before using these data.